Date,TemperatureHighF,TemperatureAvgF,TemperatureLowF,DewpointHighF,DewpointAvgF,DewpointLowF,HumidityHigh,HumidityAvg,HumidityLow,PressureMaxIn,PressureMinIn,WindSpeedMaxMPH,WindSpeedAvgMPH,GustSpeedMaxMPH,PrecipitationSumIn
2014-1-1,72.0,56.4,46.9,56.3,49.7,42.2,99,80,45,30.09,29.99,5,1,0,0.00
2014-1-2,75.9,62.1,52.2,48.7,38.4,28.7,77,43,25,30.06,29.95,6,1,0,0.00
2014-1-3,73.0,59.1,51.4,49.6,38.2,30.1,84,47,29,29.99,29.87,5,1,0,0.00
2014-1-4,68.7,56.1,50.0,54.2,48.9,38.5,99,79,47,29.98,29.89,4,1,0,0.00
2014-1-5,74.5,59.1,48.9,53.2,38.0,14.5,99,55,18,30.11,29.97,6,1,0,0.00
2014-1-6,75.2,63.3,56.5,31.8,21.0,10.8,36,20,13,30.17,30.05,8,2,0,0.00
2014-1-7,71.1,59.9,52.7,54.6,32.4,18.4,99,39,18,30.11,30.00,4,1,0,0.00
2014-1-8,64.0,54.8,48.4,54.3,51.3,43.5,99,89,49,30.09,29.97,5,1,0,0.00
2014-1-9,61.5,51.9,48.4,54.3,50.6,48.1,99,96,74,30.05,29.93,8,1,0,0.00
2014-1-10,68.5,55.7,48.2,56.5,51.3,47.8,99,87,55,30.09,29.99,6,1,0,0.00
2014-1-11,71.4,58.4,51.8,51.8,47.2,41.9,94,68,41,30.13,30.00,5,1,0,0.01
2014-1-12,69.4,56.7,50.0,55.8,50.6,33.1,99,82,40,30.12,29.99,6,1,0,0.00
2014-1-13,77.5,64.9,56.5,31.5,25.8,20.1,38,23,16,30.26,30.09,6,2,0,0.00
2014-1-14,82.4,71.1,61.0,26.7,20.7,16.3,22,15,10,30.28,30.15,6,2,0,0.00
2014-1-15,84.6,71.1,63.3,34.9,24.4,17.2,21,17,13,30.19,30.06,6,2,0,0.00
2014-1-16,84.9,71.0,61.2,31.9,20.3,12.5,25,15,9,30.10,29.99,6,2,0,0.00
2014-1-17,82.4,69.9,61.5,33.5,19.5,13.1,24,15,10,30.09,29.98,8,2,0,0.00
2014-1-18,80.4,65.4,56.7,38.0,27.5,21.1,33,24,17,30.06,29.95,6,1,0,0.00
2014-1-19,76.1,65.2,56.3,36.2,25.6,19.3,46,23,15,30.06,29.99,7,2,0,0.00
2014-1-20,77.9,62.6,54.0,44.9,33.7,23.7,59,35,21,30.13,30.02,6,1,0,0.00
2014-1-21,74.7,64.5,54.9,47.1,34.4,22.1,49,34,21,30.12,30.01,3,1,0,0.00
2014-1-22,73.0,60.4,50.2,52.6,46.0,29.9,99,63,34,30.02,29.85,5,1,0,0.00
2014-1-23,69.6,54.3,44.1,53.8,48.2,41.3,99,84,39,30.05,29.84,4,1,0,0.00
2014-1-24,70.9,59.9,52.2,52.9,46.6,37.4,99,64,30,30.19,30.04,4,0,0,0.00
2014-1-25,71.4,62.2,55.0,52.1,43.5,34.7,81,51,32,30.18,30.06,6,2,0,0.00
2014-1-26,68.0,58.1,52.0,52.4,47.4,41.3,89,68,53,30.11,29.97,5,1,0,0.00
2014-1-27,67.5,56.8,52.2,57.7,53.8,49.2,99,91,67,30.07,29.96,8,2,0,0.00
2014-1-28,68.2,56.5,50.4,59.6,54.4,50.1,99,93,72,30.10,29.98,4,1,0,0.00
2014-1-29,74.7,57.7,49.1,60.9,53.8,48.8,99,89,50,30.05,29.89,6,1,0,0.00
2014-1-30,59.2,55.4,52.7,57.8,54.8,51.9,99,98,92,29.93,29.83,5,1,0,0.01
2014-1-31,60.4,54.2,47.8,53.7,49.2,35.4,99,84,61,29.94,29.84,10,4,0,0.00
2014-2-1,62.4,51.7,44.1,43.5,38.9,28.0,92,64,30,30.01,29.90,11,3,0,0.00
2014-2-2,61.2,52.3,46.8,50.5,40.0,23.6,98,65,37,30.06,29.90,5,2,0,0.01
2014-2-3,58.1,50.1,44.4,49.5,46.6,44.1,99,88,67,29.94,29.84,10,3,0,0.08
2014-2-4,60.1,51.6,45.3,49.5,45.7,42.3,92,81,62,30.04,29.94,5,1,0,0.00
2014-2-5,59.7,51.5,45.5,48.9,46.0,42.4,96,82,59,30.10,29.96,9,2,0,0.00
2014-2-6,61.3,52.8,49.3,52.8,49.9,46.8,99,90,72,30.04,29.94,10,2,0,0.09
2014-2-7,60.3,54.0,51.1,54.4,52.0,50.8,99,94,74,30.18,29.98,8,2,0,0.03
2014-2-8,62.8,54.2,48.2,54.4,51.2,47.9,99,91,66,30.23,30.14,9,3,0,0.00
2014-2-9,63.9,56.1,52.5,55.9,53.8,52.2,99,92,75,30.19,30.06,7,2,0,0.00
2014-2-10,65.7,56.4,51.4,58.6,54.3,51.1,99,93,77,30.11,29.97,7,2,0,0.00
2014-2-11,72.9,58.0,48.0,59.7,52.5,47.7,99,84,51,30.05,29.98,7,1,0,0.00
2014-2-12,83.3,65.3,54.7,53.0,47.5,40.0,88,56,26,30.11,29.99,7,2,0,0.00
2014-2-13,79.5,65.5,56.8,49.5,41.6,34.8,68,44,25,30.04,29.93,6,1,0,0.00
2014-2-14,84.0,65.1,55.2,49.2,44.2,38.9,68,49,26,30.01,29.91,6,1,0,0.00
2014-2-15,80.4,65.5,55.8,52.4,44.8,36.3,79,49,26,29.99,29.89,6,1,0,0.00
2014-2-16,73.2,61.0,54.0,56.9,52.5,48.0,95,75,45,30.03,29.92,7,1,0,0.00
2014-2-17,68.5,57.7,52.9,57.1,52.8,43.5,99,85,59,30.03,29.95,7,2,0,0.00
2014-2-18,65.7,55.9,52.2,54.4,52.0,49.7,99,87,67,30.03,29.91,7,2,0,0.00
2014-2-19,63.5,55.5,50.9,56.0,53.1,50.6,99,92,73,29.97,29.84,7,2,0,0.00
2014-2-20,81.3,62.4,48.4,58.8,47.9,35.4,99,67,23,29.99,29.89,6,1,0,0.00
2014-2-21,77.9,64.3,55.2,51.6,44.6,35.0,86,51,27,29.95,29.82,7,2,0,0.00
2014-2-22,72.9,59.3,50.0,53.8,45.0,36.0,99,63,30,29.89,29.81,4,1,0,0.00
2014-2-23,72.3,58.7,50.0,55.2,49.3,40.7,99,76,36,29.96,29.86,6,1,0,0.00
2014-2-24,68.4,57.9,50.2,56.2,52.7,49.3,99,85,52,29.99,29.87,7,2,0,0.00
2014-2-25,65.8,57.1,49.3,55.2,52.8,49.0,99,86,67,30.00,29.92,6,1,0,0.00
2014-2-26,65.1,58.5,53.4,55.7,53.5,51.3,95,84,67,30.04,29.96,8,2,0,0.00
2014-2-27,68.7,59.5,55.0,62.5,57.4,52.9,99,93,74,29.99,29.82,7,2,0,0.24
2014-2-28,59.7,56.6,52.3,59.4,56.3,52.0,99,99,96,29.81,29.61,12,4,0,1.49
2014-3-1,62.8,55.6,51.1,58.6,54.3,50.8,99,96,83,29.92,29.71,11,2,0,0.37
2014-3-2,62.6,54.5,50.7,58.7,53.6,50.4,99,97,83,30.12,29.93,5,1,0,0.06
2014-3-3,66.0,56.3,51.3,58.4,53.9,51.0,99,92,73,30.10,29.98,10,3,0,0.00
2014-3-4,65.5,56.5,51.1,58.1,54.5,50.8,99,93,77,30.02,29.92,8,2,0,0.00
2014-3-5,70.2,58.7,50.4,62.8,56.9,50.1,99,94,75,30.05,29.95,8,2,0,0.00
2014-3-6,68.5,59.9,54.7,61.7,57.9,54.4,99,94,77,30.05,29.92,7,2,0,0.00
2014-3-7,69.3,60.2,55.4,60.9,55.4,48.5,99,85,59,29.97,29.86,7,2,0,0.00
2014-3-8,83.1,68.0,53.4,53.7,39.4,30.1,99,39,20,30.08,29.91,9,3,0,0.00
2014-3-9,82.2,71.6,63.1,36.3,30.8,24.7,32,23,16,30.11,30.01,7,3,0,0.03
2014-3-10,77.0,66.2,57.6,50.0,39.7,29.1,63,39,27,30.04,29.94,7,2,0,0.00
2014-3-11,80.1,62.1,54.0,58.0,51.9,43.9,99,73,32,29.96,29.86,5,1,0,0.00
2014-3-12,75.4,60.5,52.2,58.0,53.5,36.4,99,81,25,29.97,29.88,7,2,0,0.00
2014-3-13,66.4,58.4,52.7,56.0,53.6,49.8,99,85,63,29.97,29.87,7,2,0,0.00
2014-3-14,69.8,58.7,50.4,59.2,54.7,50.1,99,88,64,30.08,29.97,7,2,0,0.00
2014-3-15,84.2,64.6,52.0,60.5,53.6,41.6,99,72,26,30.16,30.06,8,2,0,0.00
2014-3-16,87.8,70.5,60.1,50.2,39.4,29.7,67,36,13,30.19,30.05,10,2,0,0.01
2014-3-17,73.6,62.3,54.5,60.7,53.6,32.7,99,76,31,30.04,29.75,6,2,0,0.00
2014-3-18,70.0,59.6,53.2,58.6,55.4,52.9,99,87,67,29.89,29.74,7,2,0,0.00
2014-3-19,72.9,60.1,51.8,60.1,55.0,51.5,99,85,50,30.01,29.89,7,2,0,0.00
2014-3-20,71.8,58.5,51.8,60.4,55.1,51.5,99,90,59,30.00,29.88,7,2,0,0.00
2014-3-21,65.1,57.9,53.6,55.5,53.3,51.9,99,86,67,29.97,29.90,9,2,0,0.00
2014-3-22,63.9,57.8,52.5,56.0,53.1,51.6,99,85,71,30.05,29.94,10,2,0,0.00
2014-3-23,66.4,57.0,50.9,57.7,54.2,50.6,99,91,73,30.10,29.96,9,3,0,0.00
2014-3-24,64.8,57.3,54.9,59.5,56.2,54.6,99,96,83,30.07,29.95,6,2,0,0.00
2014-3-25,64.4,56.8,54.3,59.1,55.8,54.0,99,96,83,29.99,29.85,8,2,0,0.00
2014-3-26,63.0,56.5,52.7,55.7,53.9,52.1,99,91,69,29.94,29.84,12,6,0,0.00
2014-3-27,64.2,56.2,51.3,53.5,51.7,47.6,99,86,59,30.05,29.93,9,4,0,0.00
2014-3-28,67.5,57.2,49.8,56.9,52.1,48.5,98,84,59,30.13,30.03,9,3,0,0.00
2014-3-29,73.6,60.3,51.6,59.1,54.3,50.4,99,83,56,30.11,29.92,7,2,0,0.00
2014-3-30,68.7,58.5,52.7,55.5,51.6,45.5,99,80,50,30.02,29.93,11,4,0,0.00
2014-3-31,66.2,55.8,49.5,54.9,50.7,46.8,99,84,64,30.00,29.93,11,3,0,0.00
2014-4-1,61.0,54.3,48.7,51.7,48.3,41.6,99,82,50,29.99,29.90,11,4,0,0.11
2014-4-2,58.8,51.9,46.0,50.7,47.3,45.7,99,85,64,30.04,29.89,14,5,0,0.10
2014-4-3,64.9,54.2,45.0,52.3,47.7,42.6,96,80,58,30.10,29.99,9,3,0,0.00
2014-4-4,62.2,54.5,49.5,52.4,50.0,47.1,99,86,62,30.00,29.90,9,3,0,0.00
2014-4-5,64.8,56.3,48.2,54.4,49.2,42.5,99,79,50,30.00,29.89,10,3,0,0.00
2014-4-6,78.6,64.2,50.5,53.5,44.2,35.8,80,52,25,30.05,29.95,9,2,0,0.01
2014-4-7,87.1,71.4,57.6,48.9,42.0,36.6,50,36,22,30.06,29.99,8,2,0,0.00
2014-4-8,90.5,74.8,61.0,50.8,39.9,33.0,43,30,17,30.06,29.94,9,3,0,0.00
2014-4-9,89.6,72.8,61.5,59.0,39.8,29.8,45,31,15,30.00,29.88,7,2,0,0.00
2014-4-10,84.2,68.2,55.4,49.0,39.9,28.8,60,38,14,29.94,29.84,6,1,0,0.00
2014-4-11,81.1,63.6,53.2,55.7,50.3,39.1,99,66,27,29.89,29.79,8,3,0,0.00
2014-4-12,66.7,58.2,54.1,54.4,52.4,49.6,99,82,63,29.93,29.82,9,3,0,0.00
2014-4-13,66.2,57.9,53.2,54.3,51.2,48.7,93,79,65,29.98,29.89,9,3,0,0.00
2014-4-14,84.0,65.8,50.0,59.6,48.7,34.7,99,63,18,30.00,29.92,7,2,0,0.00
2014-4-15,79.5,62.2,53.1,59.6,54.4,48.3,99,79,36,29.98,29.77,8,2,0,0.00
2014-4-16,71.6,60.7,54.9,57.4,55.3,53.5,99,84,57,29.82,29.74,6,2,0,0.00
2014-4-17,71.6,60.6,55.9,59.2,56.3,55.0,99,87,63,29.87,29.78,5,2,0,0.00
2014-4-18,73.4,61.7,56.3,58.9,55.8,53.4,95,82,59,29.89,29.80,9,2,0,0.00
2014-4-19,71.6,61.0,53.2,59.2,56.0,52.9,99,85,61,30.00,29.87,9,3,0,0.00
2014-4-20,75.2,63.7,55.8,61.5,58.2,55.0,99,84,57,30.02,29.94,7,2,0,0.00
2014-4-21,81.9,64.1,55.8,62.9,58.3,54.0,99,84,49,30.01,29.89,9,2,0,0.00
2014-4-22,71.8,60.9,54.1,58.1,55.4,50.7,98,83,59,29.94,29.84,10,3,0,0.00
2014-4-23,70.7,59.9,51.1,56.2,51.0,42.6,99,75,47,29.92,29.85,7,2,0,0.00
2014-4-24,74.8,62.7,53.6,57.2,53.5,44.3,97,74,46,29.95,29.85,9,2,0,0.00
2014-4-25,70.0,60.0,53.2,57.9,55.6,52.9,99,87,64,29.89,29.75,11,3,0,0.23
2014-4-26,63.0,55.4,49.8,53.3,49.0,45.8,99,80,58,29.95,29.72,14,7,0,0.53
2014-4-27,68.0,58.8,51.1,54.5,50.1,44.3,97,74,46,29.97,29.91,9,3,0,0.00
2014-4-28,80.2,64.0,52.3,58.2,52.3,45.8,93,68,37,29.97,29.83,10,3,0,0.00
2014-4-29,93.7,77.3,56.8,54.4,34.1,22.3,88,30,10,29.99,29.90,6,2,0,0.00
2014-4-30,91.8,79.5,67.5,27.7,22.4,16.9,20,13,8,29.98,29.87,7,2,0,0.00
2014-5-1,97.5,79.4,67.8,34.0,25.4,17.5,25,14,8,30.00,29.88,10,3,0,0.00
2014-5-2,95.5,79.0,64.6,49.0,33.5,26.2,50,21,9,29.95,29.83,6,2,0,0.00
2014-5-3,91.6,74.8,62.6,54.4,42.9,33.5,58,35,16,29.88,29.79,7,2,0,0.00
2014-5-4,82.4,67.2,57.6,59.7,53.7,42.7,95,65,26,29.94,29.85,6,2,0,0.00
2014-5-5,71.2,62.1,55.9,57.4,55.5,53.8,98,80,59,29.96,29.86,6,2,0,0.00
2014-5-6,63.5,57.0,52.5,54.4,51.0,48.4,96,81,59,29.87,29.78,14,5,0,0.00
2014-5-7,69.6,60.0,52.2,55.5,53.2,51.1,98,80,58,29.96,29.80,7,2,0,0.00
2014-5-8,68.0,60.0,54.3,55.1,51.9,49.8,94,75,60,30.02,29.93,8,3,0,0.00
2014-5-9,69.8,60.7,52.7,57.9,55.1,51.8,99,83,61,30.02,29.92,8,3,0,0.00
2014-5-10,70.3,62.0,55.8,58.9,56.3,53.5,99,82,62,29.92,29.76,8,2,0,0.00
2014-5-11,82.2,65.0,52.7,53.0,41.6,15.1,94,53,8,29.90,29.78,11,4,0,0.00
2014-5-12,91.0,75.7,60.1,40.6,30.8,24.4,48,21,12,29.97,29.87,12,4,0,0.00
2014-5-13,96.1,80.0,65.1,37.5,30.4,18.6,28,17,10,30.04,29.94,10,2,0,0.00
2014-5-14,103.3,83.7,70.2,38.9,27.8,19.0,28,14,7,30.01,29.88,8,2,0,0.00
2014-5-15,98.2,85.0,71.4,38.6,29.5,24.6,29,15,8,29.96,29.86,11,3,0,0.00
2014-5-16,95.5,80.7,67.5,55.9,38.6,27.1,57,25,13,29.93,29.82,8,2,0,0.00
2014-5-17,81.9,69.7,60.8,62.4,59.7,52.9,99,74,42,29.86,29.77,4,2,0,0.00
2014-5-18,74.3,65.7,60.3,60.9,58.8,57.2,92,79,60,29.84,29.78,7,2,0,0.00
2014-5-19,72.9,64.2,57.6,58.5,56.8,55.3,94,78,59,29.90,29.82,7,2,0,0.00
2014-5-20,66.4,60.7,55.6,55.7,53.5,51.0,92,78,58,29.96,29.87,10,4,0,0.00
2014-5-21,71.2,61.1,52.2,57.1,54.0,50.2,96,79,56,29.94,29.88,9,3,0,0.00
2014-5-22,68.4,61.8,58.3,57.8,56.0,54.2,93,82,66,29.97,29.88,7,2,0,0.00
2014-5-23,71.2,62.8,57.9,60.5,57.3,55.3,98,83,68,29.98,29.91,10,3,0,0.00
2014-5-24,66.2,61.8,58.5,60.3,58.6,57.6,98,89,77,29.97,29.88,5,1,0,0.00
2014-5-25,73.9,64.7,59.4,64.2,60.7,58.0,99,87,70,29.94,29.82,9,2,0,0.00
2014-5-26,77.2,67.5,61.5,65.1,62.4,60.3,99,85,65,29.93,29.84,7,2,0,0.00
2014-5-27,78.1,67.5,61.7,66.8,62.8,60.7,97,86,66,29.94,29.84,7,2,0,0.00
2014-5-28,78.3,66.5,60.8,65.1,61.5,59.2,99,85,63,29.89,29.77,7,2,0,0.00
2014-5-29,76.6,66.1,59.7,63.1,60.1,58.3,97,82,63,29.87,29.80,8,2,0,0.00
2014-5-30,79.3,66.8,58.1,65.1,60.4,55.6,99,82,53,29.85,29.76,8,2,0,0.00
2014-5-31,80.8,66.8,55.2,65.0,58.2,52.2,99,76,49,29.86,29.78,8,2,0,0.00
2014-6-1,80.1,67.8,59.0,63.7,59.8,55.3,99,78,48,29.85,29.74,8,2,0,0.00
2014-6-2,76.3,65.3,58.3,62.7,59.2,56.3,99,82,54,29.84,29.77,9,3,0,0.00
2014-6-3,82.6,68.3,56.5,62.3,57.8,53.9,99,73,40,29.86,29.73,7,2,0,0.00
2014-6-4,79.7,67.4,56.8,63.2,57.4,44.7,99,72,49,29.82,29.72,6,2,0,0.00
2014-6-5,79.0,66.0,58.1,62.6,59.3,49.4,99,81,54,29.81,29.72,8,3,0,0.00
2014-6-6,76.8,64.7,57.9,62.7,59.8,57.6,99,85,61,29.80,29.74,7,2,0,0.00
2014-6-7,73.2,64.3,59.2,61.9,59.1,57.2,97,84,65,29.80,29.71,7,2,0,0.00
2014-6-8,77.5,65.9,59.5,64.4,61.2,58.6,99,86,64,29.78,29.68,6,3,0,0.00
2014-6-9,78.4,65.3,59.7,66.5,62.0,59.4,99,90,67,29.78,29.69,8,2,0,0.00
2014-6-10,71.1,64.3,60.8,63.1,60.9,58.0,99,89,72,29.85,29.71,8,1,0,0.00
2014-6-11,73.8,65.5,58.8,62.9,59.5,56.8,99,82,66,29.88,29.81,8,2,0,0.00
2014-6-12,73.8,65.4,58.3,63.0,60.5,57.9,99,85,67,29.90,29.85,8,3,0,0.00
2014-6-13,73.2,65.0,58.5,61.3,59.2,56.5,99,83,65,29.91,29.82,8,3,0,0.00
2014-6-14,74.8,66.1,59.2,61.9,59.5,55.9,98,80,63,29.85,29.75,8,2,0,0.00
2014-6-15,75.4,66.9,60.6,62.2,60.0,58.2,94,80,59,29.84,29.77,6,2,0,0.00
2014-6-16,75.0,66.1,58.8,61.5,58.7,56.6,98,78,59,29.87,29.80,7,3,0,0.00
2014-6-17,77.0,65.2,57.9,60.8,58.5,55.7,99,81,54,29.91,29.82,9,2,0,0.00
2014-6-18,75.2,64.4,55.0,60.2,56.9,53.3,98,78,54,29.90,29.83,8,2,0,0.00
2014-6-19,78.8,66.3,56.5,64.5,60.2,55.8,99,82,57,29.91,29.84,8,3,0,0.00
2014-6-20,81.9,68.4,59.5,66.3,61.6,56.6,99,81,50,29.88,29.81,8,2,0,0.04
2014-6-21,84.2,69.3,60.1,66.3,62.5,59.8,99,81,51,29.85,29.79,6,1,0,0.00
2014-6-22,79.7,68.0,61.3,63.6,61.1,59.1,94,80,58,29.88,29.81,8,2,0,0.00
2014-6-23,74.1,66.4,60.8,63.0,60.7,58.9,97,83,67,29.90,29.82,9,2,0,0.00
2014-6-24,79.0,67.3,60.3,64.4,61.8,59.2,99,84,61,29.91,29.83,7,3,0,0.00
2014-6-25,76.6,67.6,62.1,65.1,62.5,60.7,99,85,64,29.88,29.79,7,2,0,0.00
2014-6-26,76.5,68.0,63.0,66.0,63.3,61.3,95,85,69,29.87,29.79,8,2,0,0.00
2014-6-27,80.2,68.8,61.5,66.0,63.4,61.2,99,84,62,29.84,29.77,7,2,0,0.00
2014-6-28,77.9,68.1,63.0,67.3,63.5,61.6,96,86,68,29.82,29.75,6,2,0,0.00
2014-6-29,78.3,68.5,63.7,67.7,64.2,62.2,97,87,70,29.84,29.78,8,2,0,0.00
2014-6-30,77.5,67.1,61.3,67.7,63.5,61.0,99,89,71,29.87,29.77,8,2,0,0.00
2014-7-1,77.9,67.6,61.3,68.6,64.5,61.0,99,90,73,29.85,29.75,9,3,0,0.00
2014-7-2,77.0,67.8,62.8,68.5,64.7,62.2,99,90,72,29.86,29.77,7,2,0,0.00
2014-7-3,85.5,71.4,61.9,69.0,65.2,61.6,99,83,58,29.89,29.77,7,2,0,0.00
2014-7-4,90.0,73.3,63.1,70.3,63.3,54.5,99,76,33,29.95,29.85,6,1,0,0.00
2014-7-5,92.7,75.2,65.1,67.0,60.0,50.5,99,64,31,29.99,29.91,8,2,0,0.00
2014-7-6,88.2,75.7,65.7,67.1,58.5,43.9,89,59,24,29.99,29.84,9,3,0,0.00
2014-7-7,88.3,73.9,64.9,67.6,62.7,47.0,98,71,31,29.88,29.79,6,2,0,0.00
2014-7-8,80.4,71.3,64.8,67.8,65.6,64.1,98,83,62,29.92,29.81,7,2,0,0.00
2014-7-9,79.7,70.3,64.4,67.8,64.8,62.6,98,84,67,29.92,29.82,8,3,0,0.00
2014-7-10,79.7,70.5,63.5,67.1,64.8,62.9,98,83,64,29.93,29.82,8,3,0,0.00
2014-7-11,78.1,69.3,62.4,66.3,63.8,62.1,99,84,64,29.95,29.89,9,3,0,0.00
2014-7-12,80.6,69.3,61.3,66.8,63.8,59.7,99,84,52,29.96,29.86,7,2,0,0.00
2014-7-13,79.7,70.6,63.3,69.2,65.5,62.5,99,85,67,29.90,29.80,8,2,0,0.22
2014-7-14,78.1,69.4,65.1,69.5,66.3,64.3,99,90,74,29.96,29.85,6,2,0,0.00
2014-7-15,72.1,67.4,64.6,68.4,65.3,63.1,99,93,82,30.01,29.93,8,2,0,0.00
2014-7-16,75.7,68.9,62.4,65.5,63.5,60.9,97,84,66,30.01,29.90,8,3,0,0.00
2014-7-17,75.6,67.5,60.1,64.1,61.5,59.5,99,82,62,30.00,29.91,10,3,0,0.00
2014-7-18,76.1,66.9,59.9,63.2,61.4,59.6,99,84,63,29.98,29.89,11,3,0,0.00
2014-7-19,75.4,66.3,61.3,65.9,63.0,60.7,99,90,71,29.94,29.87,6,2,0,0.00
2014-7-20,81.3,69.3,63.0,66.5,63.6,61.6,98,83,61,29.96,29.88,9,3,0,0.00
2014-7-21,80.6,69.2,61.7,66.4,63.6,61.4,99,84,62,30.03,29.92,10,3,0,0.00
2014-7-22,83.5,71.8,61.3,68.1,63.3,58.8,99,77,53,30.00,29.92,8,4,0,0.00
2014-7-23,86.7,75.1,63.7,67.1,60.9,54.7,90,64,36,29.96,29.81,8,3,0,0.00
2014-7-24,92.8,78.0,64.6,67.0,62.9,58.9,92,63,40,29.84,29.66,7,2,0,0.00
2014-7-25,86.7,73.8,66.2,70.5,67.3,64.7,99,82,53,29.87,29.78,5,2,0,0.00
2014-7-26,83.7,72.4,64.6,70.5,67.0,64.3,99,85,61,29.94,29.84,8,2,0,0.00
2014-7-27,91.8,74.5,65.7,69.7,64.3,54.2,99,74,34,29.98,29.85,7,2,0,0.00
2014-7-28,90.0,77.3,68.2,68.8,60.1,38.6,96,60,24,30.02,29.90,10,2,0,0.00
2014-7-29,90.7,75.8,66.0,62.1,56.4,46.7,83,53,27,30.00,29.88,7,2,0,0.00
2014-7-30,89.4,79.0,69.8,65.6,61.9,57.9,78,57,42,29.89,29.82,7,3,0,0.00
2014-7-31,87.1,74.0,64.8,69.3,64.3,59.9,98,74,50,29.89,29.78,8,2,0,0.22
2014-8-1,81.9,72.7,65.7,69.8,66.4,63.6,97,82,62,29.88,29.78,7,2,0,0.00
2014-8-2,85.6,72.7,66.6,71.1,67.6,65.7,98,85,60,29.92,29.82,6,2,0,0.00
2014-8-3,84.4,75.3,70.0,73.3,69.7,67.1,96,84,61,29.90,29.82,7,2,0,0.00
2014-8-4,87.3,74.1,63.9,71.5,66.5,54.3,99,79,56,29.95,29.87,8,2,0,0.00
2014-8-5,81.5,68.9,59.4,65.7,61.6,58.6,99,80,51,29.98,29.91,8,3,0,0.00
2014-8-6,75.4,66.9,60.6,64.1,61.4,59.7,99,84,63,30.01,29.89,8,2,0,0.00
2014-8-7,76.8,67.4,59.5,64.4,61.9,58.8,99,84,62,29.95,29.82,8,2,0,0.00
2014-8-8,77.2,69.4,64.8,66.2,63.9,62.4,95,84,67,29.90,29.81,8,2,0,0.00
2014-8-9,78.4,69.9,65.3,67.7,65.4,63.7,96,86,69,29.92,29.86,9,3,0,0.01
2014-8-10,82.4,71.2,62.2,68.2,64.8,61.9,99,82,60,29.93,29.84,7,2,0,0.00
2014-8-11,82.6,70.7,63.5,70.5,65.2,62.0,99,84,62,29.91,29.84,6,2,0,0.00
2014-8-12,80.1,69.8,63.5,68.9,64.5,59.8,99,84,67,29.94,29.83,9,3,0,0.00
2014-8-13,78.6,68.3,62.6,68.7,64.0,60.3,99,87,68,29.94,29.84,10,3,0,0.00
2014-8-14,84.9,70.5,60.4,69.0,63.4,59.7,99,80,54,29.91,29.84,7,2,0,0.00
2014-8-15,91.4,74.5,62.2,71.1,61.4,47.7,99,68,35,29.94,29.84,8,2,0,0.00
2014-8-16,90.0,76.6,64.4,69.0,59.0,44.8,90,59,22,29.96,29.84,9,2,0,0.00
2014-8-17,88.3,75.0,64.8,66.7,60.6,55.3,88,63,34,29.92,29.77,7,2,0,0.00
2014-8-18,86.2,71.3,62.6,68.0,65.0,62.3,99,82,51,29.83,29.72,7,2,0,0.00
2014-8-19,79.0,69.9,63.9,65.6,63.1,60.3,92,80,62,29.86,29.78,7,2,0,0.00
2014-8-20,80.2,69.2,61.9,65.6,62.7,59.7,96,81,60,29.90,29.82,8,2,0,0.00
2014-8-21,79.3,69.7,63.5,66.6,64.2,62.3,97,84,65,29.91,29.82,9,2,0,0.00
2014-8-22,81.5,69.8,63.3,68.6,65.1,62.4,99,86,58,29.93,29.85,8,2,0,0.00
2014-8-23,79.5,69.1,61.5,64.5,62.4,58.9,99,82,50,29.92,29.80,7,2,0,0.00
2014-8-24,78.6,68.1,60.6,64.2,62.5,60.3,99,84,59,29.86,29.77,7,2,0,0.00
2014-8-25,81.0,70.0,62.1,66.3,62.9,59.8,99,80,56,29.89,29.80,8,2,0,0.00
2014-8-26,83.8,71.8,62.2,65.5,61.8,56.8,95,73,46,29.93,29.86,6,2,0,0.00
2014-8-27,92.1,76.6,64.8,64.2,57.4,46.6,86,56,22,29.99,29.90,8,2,0,0.00
2014-8-28,92.7,79.0,68.5,61.7,56.3,48.0,70,47,30,29.95,29.80,8,2,0,0.00
2014-8-29,86.7,72.8,63.5,66.3,61.5,55.5,90,69,42,29.83,29.72,6,2,0,0.00
2014-8-30,88.2,73.5,63.5,68.8,64.0,54.1,99,75,49,29.78,29.66,6,2,0,0.00
2014-8-31,84.6,73.5,67.1,69.8,67.1,64.7,99,82,53,29.78,29.71,6,2,0,0.00
2014-9-1,83.3,71.6,63.5,67.5,65.1,62.2,99,82,52,29.78,29.71,4,1,0,0.00
2014-9-2,79.9,71.1,65.7,67.3,65.4,63.3,97,83,64,29.80,29.70,7,2,0,0.00
2014-9-3,77.9,70.4,65.3,66.5,65.2,63.9,98,85,68,29.76,29.64,9,2,0,0.00
2014-9-4,77.0,69.6,63.3,65.8,64.0,62.7,99,83,67,29.74,29.67,7,2,0,0.00
2014-9-5,80.4,69.7,61.9,68.1,64.8,61.6,99,86,64,29.85,29.74,7,2,0,0.00
2014-9-6,90.9,74.6,63.7,71.2,65.6,59.8,99,76,49,29.87,29.73,6,2,0,0.00
2014-9-7,94.6,78.1,68.4,69.4,63.6,53.8,88,66,27,29.78,29.68,7,1,0,0.00
2014-9-9,76.6,69.1,65.8,58.2,53.6,48.9,72,58,49,29.86,29.79,3,0,0,0.06
2014-9-10,86.0,73.1,61.5,65.2,59.5,49.7,99,67,31,29.86,29.72,8,2,0,0.00
2014-9-11,88.2,76.7,65.8,67.7,60.3,47.1,96,61,25,29.82,29.72,10,2,0,0.00
2014-9-12,90.1,77.1,66.6,69.5,64.9,59.1,99,69,36,29.79,29.67,10,2,0,0.00
2014-9-13,92.1,79.1,66.2,70.9,64.8,59.7,93,65,37,29.74,29.62,10,2,0,0.06
2014-9-14,101.3,83.8,71.2,69.1,62.2,57.8,77,52,25,29.71,29.61,8,2,0,0.00
2014-9-15,99.0,83.3,70.2,70.6,64.2,56.3,83,56,32,29.75,29.65,8,2,0,0.00
2014-9-16,101.1,84.9,71.6,68.6,62.5,55.5,77,50,26,29.73,29.60,7,2,0,0.00
2014-9-17,92.5,81.8,68.9,68.9,62.0,55.7,85,53,35,29.74,29.64,36,3,0,0.18
2014-9-18,78.6,70.2,64.8,67.6,64.7,60.5,93,83,68,29.84,29.74,10,4,0,0.00
2014-9-19,74.7,69.1,64.8,65.1,63.5,61.7,96,83,68,29.87,29.77,10,3,0,0.00
2014-9-20,75.2,67.7,62.4,65.5,63.0,60.7,97,86,66,29.90,29.82,8,2,0,0.00
2014-9-21,76.6,68.1,63.3,64.5,62.1,60.8,95,82,63,29.95,29.86,12,3,0,0.00
2014-9-22,77.9,68.4,60.6,66.9,63.3,60.3,99,85,66,29.94,29.84,10,3,0,0.00
2014-9-23,83.7,70.4,60.8,68.2,62.9,59.5,99,79,57,29.94,29.81,8,2,0,0.06
2014-9-24,90.7,75.5,62.1,64.8,57.2,46.4,89,57,28,29.87,29.76,7,2,0,0.00
2014-9-25,86.4,75.4,66.2,62.6,56.8,43.5,78,55,23,29.88,29.79,8,3,0,0.00
2014-9-26,79.0,69.7,61.7,66.9,62.2,55.0,93,78,44,29.84,29.76,13,3,0,0.06
2014-9-27,72.5,65.0,59.2,61.6,58.9,56.9,94,82,64,29.85,29.73,14,3,0,0.00
2014-9-28,74.3,65.3,59.2,61.5,58.5,56.3,92,80,58,29.88,29.79,9,1,0,0.00
2014-9-29,78.6,66.2,58.3,62.6,58.6,55.6,95,78,46,29.90,29.78,11,3,0,0.00
2014-9-30,83.5,70.3,60.6,65.8,59.0,54.6,95,69,40,29.83,29.69,9,2,0,0.00
2014-10-1,77.4,68.0,61.3,65.6,63.0,60.7,99,85,67,29.83,29.70,9,2,0,0.00
2014-10-2,92.8,78.1,63.1,63.2,43.4,30.7,99,38,12,29.93,29.81,12,2,0,0.00
2014-10-3,96.1,82.0,71.4,39.8,31.8,24.1,29,17,8,29.98,29.86,10,3,0,0.00
2014-10-4,95.2,80.2,70.5,66.6,39.3,26.3,80,28,9,29.90,29.79,8,2,0,0.00
2014-10-5,90.3,77.5,67.6,64.0,43.9,30.8,80,34,12,29.88,29.77,8,2,0,0.00
2014-10-6,90.7,76.7,65.7,54.0,39.4,33.3,64,28,14,29.87,29.76,8,2,0,0.00
2014-10-7,93.9,75.7,64.4,65.7,47.7,31.0,93,45,11,29.87,29.75,10,2,0,0.00
2014-10-8,83.7,70.8,62.4,65.2,57.4,46.6,97,66,28,29.84,29.74,9,2,0,0.00
2014-10-9,75.4,67.6,61.3,62.7,60.7,58.0,93,80,63,29.91,29.83,7,1,0,0.00
2014-10-10,75.6,66.1,59.5,64.7,62.3,58.8,99,88,69,29.95,29.85,8,3,0,0.06
2014-10-11,78.6,67.5,62.1,65.4,63.2,61.2,99,87,62,29.94,29.83,8,2,0,0.00
2014-10-12,75.9,67.2,63.3,65.5,63.7,61.3,99,89,69,29.89,29.79,9,2,0,0.00
2014-10-13,78.3,67.5,62.1,66.8,63.9,61.8,99,89,66,29.97,29.89,8,2,0,0.00
2014-10-14,73.9,66.3,61.9,64.4,62.3,60.2,99,88,70,29.96,29.85,7,2,0,0.00
2014-10-15,73.6,66.7,62.4,60.7,58.6,56.3,90,76,57,29.96,29.87,9,3,0,0.00
2014-10-16,73.0,65.5,60.1,61.3,59.6,57.7,93,82,62,29.97,29.87,9,2,0,0.00
2014-10-17,73.2,65.5,60.3,61.5,60.0,58.4,96,83,62,29.93,29.85,10,3,0,0.00
2014-10-18,71.4,65.1,59.7,61.7,59.5,57.1,95,83,68,29.90,29.78,10,3,0,0.00
2014-10-19,73.9,65.1,58.3,63.5,60.8,56.6,99,87,68,29.87,29.77,7,2,0,0.00
2014-10-20,72.5,66.1,62.2,64.0,62.6,61.2,99,89,72,29.90,29.80,8,2,0,0.00
2014-10-21,74.7,65.5,59.7,64.5,61.8,59.4,99,89,70,29.87,29.77,11,2,0,0.07
2014-10-22,79.2,66.6,58.1,65.6,60.4,57.8,99,82,57,29.92,29.82,7,2,0,0.00
2014-10-23,83.1,70.0,61.7,65.4,57.6,49.9,88,67,41,29.95,29.85,6,1,0,0.00
2014-10-24,85.5,72.0,61.3,60.2,48.9,37.1,85,49,19,29.96,29.87,6,1,0,0.06
2014-10-25,79.7,67.7,62.2,61.2,57.3,46.2,89,70,37,30.00,29.92,9,2,0,0.00
2014-10-26,74.5,65.2,59.4,63.3,60.7,57.4,99,86,64,29.97,29.82,5,1,0,0.00
2014-10-27,70.9,62.5,55.4,60.8,57.7,53.5,98,85,68,29.90,29.82,9,2,0,0.00
2014-10-28,75.7,64.8,57.4,64.2,59.8,56.9,99,85,63,29.98,29.89,8,2,0,0.00
2014-10-29,81.9,68.2,59.7,62.9,58.5,53.3,98,74,42,29.99,29.89,9,2,0,0.06
2014-10-30,76.3,65.2,59.7,64.7,60.8,57.5,99,87,60,29.95,29.87,8,2,0,0.00
2014-10-31,71.2,63.5,58.5,62.8,59.0,56.2,99,86,65,29.93,29.78,11,2,0,0.00
2014-11-1,63.7,59.3,54.3,59.2,53.2,47.9,99,81,64,29.93,29.78,13,5,0,0.50
2014-11-2,64.6,56.9,51.4,55.9,51.4,49.0,99,83,59,30.02,29.93,9,2,0,0.04
2014-11-3,73.2,61.1,52.3,52.9,42.6,25.6,84,56,21,30.10,30.00,12,3,0,0.00
2014-11-4,77.5,65.6,57.2,50.2,29.4,18.1,66,27,15,30.15,30.01,11,3,0,0.00
2014-11-5,84.4,72.4,60.4,39.0,25.6,15.6,27,18,12,30.06,29.94,9,2,0,0.00
2014-11-6,88.5,75.7,66.9,36.7,28.1,20.6,29,18,10,30.12,30.00,10,2,0,0.00
2014-11-7,85.5,73.4,66.2,41.3,31.2,24.2,30,22,14,30.07,29.92,8,1,0,0.00
2014-11-8,86.4,72.0,62.8,54.0,38.9,31.3,73,32,17,30.01,29.89,7,2,0,0.00
2014-11-9,78.1,63.7,56.5,63.0,58.3,45.7,99,84,52,29.94,29.75,6,1,0,0.00
2014-11-10,68.2,61.7,57.4,58.9,56.3,53.2,95,83,68,29.85,29.77,9,1,0,0.00
2014-11-11,68.4,62.1,59.4,56.0,54.5,52.1,86,77,61,29.90,29.83,7,2,0,0.00
2014-11-12,66.2,60.5,55.4,56.6,54.6,52.2,89,81,66,29.98,29.88,12,3,0,0.00
2014-11-13,66.2,59.9,54.7,57.7,55.1,51.7,94,85,68,30.04,29.94,7,2,0,0.00
2014-11-14,67.8,60.9,57.2,63.4,59.1,56.9,99,94,80,29.99,29.91,9,2,0,0.02
2014-11-15,68.0,60.1,55.6,60.7,57.5,55.3,99,92,75,30.03,29.94,9,2,0,0.00
2014-11-16,79.0,62.1,54.5,56.9,29.1,2.0,99,44,9,30.11,29.97,5,1,0,0.00
2014-11-17,74.1,63.5,55.9,34.5,18.7,1.3,34,19,10,30.11,30.00,8,1,0,0.00
2014-11-18,73.9,63.2,55.4,50.5,28.5,14.7,71,30,14,30.11,30.02,7,1,0,0.00
2014-11-19,69.8,59.8,54.0,55.5,48.5,33.3,90,68,43,30.10,30.01,8,2,0,0.00
2014-11-20,66.4,58.9,52.3,57.9,53.9,45.4,98,84,70,30.07,29.91,10,2,0,0.00
2014-11-21,68.4,59.9,55.6,57.4,53.2,47.8,99,80,59,30.01,29.87,7,3,0,0.00
2014-11-22,68.5,59.7,54.0,57.7,53.9,47.7,99,82,63,30.07,29.95,7,1,0,0.00
2014-11-23,77.7,63.3,53.8,54.9,34.0,11.6,97,47,8,30.11,29.97,7,1,0,0.00
2014-11-24,78.6,65.8,56.8,38.6,16.4,7.7,27,15,10,30.27,30.07,7,1,0,0.00
2014-11-25,77.5,65.7,57.4,35.8,19.0,11.1,42,17,10,30.34,30.20,8,2,0,0.00
2014-11-26,83.1,68.6,58.3,47.6,31.8,15.8,44,26,16,30.21,30.06,4,0,0,0.00
2014-11-27,85.1,73.1,63.9,35.6,25.1,19.1,30,17,11,30.07,29.94,8,1,0,0.00
2014-11-28,79.7,67.4,60.3,39.4,31.0,23.8,43,27,16,29.95,29.82,7,1,0,0.00
2014-11-29,71.1,60.3,52.7,56.1,49.7,36.6,99,72,30,29.88,29.78,4,1,0,0.00
2014-11-30,66.4,61.6,57.0,61.0,57.9,53.5,99,88,75,30.06,29.83,6,1,0,0.00
2014-12-1,69.3,61.6,55.9,61.2,57.0,50.0,99,86,65,30.11,29.94,7,1,0,0.00
2014-12-2,64.8,59.3,56.1,58.7,54.7,45.4,99,87,50,29.94,29.84,4,1,0,0.58
2014-12-3,65.7,62.3,59.0,65.4,62.0,58.7,99,99,99,29.95,29.84,4,0,0,0.54
2014-12-4,66.7,61.1,56.5,63.3,59.7,56.2,99,95,84,30.03,29.87,8,3,0,0.09
2014-12-5,66.7,59.9,55.6,61.8,58.6,55.3,99,96,84,30.09,29.99,5,1,0,0.00
2014-12-6,68.7,60.7,56.1,61.6,58.6,55.8,99,93,74,30.16,30.08,8,2,0,0.00
2014-12-7,73.0,63.4,56.3,59.9,54.9,51.8,99,76,48,30.13,30.03,7,2,0,0.00
2014-12-8,75.0,63.6,57.6,58.6,53.8,49.2,93,71,48,30.06,29.97,6,1,0,0.00
2014-12-9,73.0,62.6,55.9,60.0,53.6,47.5,98,73,59,30.06,29.93,7,2,0,0.00
2014-12-10,69.3,60.2,54.5,59.4,56.5,53.1,99,88,62,29.98,29.88,6,1,0,0.00
2014-12-11,66.7,60.3,56.5,59.9,57.1,54.9,99,90,75,29.95,29.83,5,1,0,0.00
2014-12-12,60.4,55.5,52.0,57.8,54.4,51.7,99,96,83,30.03,29.79,15,2,0,1.47
2014-12-13,61.2,53.9,50.0,51.1,47.7,42.0,99,81,52,30.09,30.01,8,2,0,0.00
2014-12-14,62.2,53.8,48.6,52.4,46.6,42.1,92,77,58,30.09,29.99,6,1,0,0.00
2014-12-15,63.3,55.3,49.6,53.4,49.5,46.9,97,81,57,30.03,29.91,4,1,0,0.00
2014-12-16,61.0,54.8,51.3,53.7,50.4,46.9,96,85,74,29.98,29.89,6,1,0,0.00
2014-12-17,59.7,54.3,49.8,56.9,50.9,47.2,99,89,71,30.07,29.90,12,3,0,0.65
2014-12-18,60.6,54.2,50.0,52.9,50.0,47.1,97,86,71,30.17,30.04,7,1,0,0.00
2014-12-19,62.8,55.0,49.6,53.7,50.7,47.7,99,86,69,30.19,30.09,8,2,0,0.00
2014-12-20,60.8,55.4,50.2,56.1,53.4,49.4,99,93,81,30.15,30.06,6,1,0,0.00
2014-12-21,65.5,57.6,52.7,59.6,55.2,50.9,99,92,77,30.11,29.98,6,1,0,0.00
2014-12-22,71.6,60.1,53.4,59.9,55.8,53.1,99,87,64,30.02,29.89,5,1,0,0.00
2014-12-23,80.8,67.9,55.4,56.6,46.8,37.8,94,51,27,30.04,29.93,6,1,0,0.00
2014-12-24,71.4,63.2,56.1,57.5,44.3,35.8,98,53,36,30.03,29.76,6,1,0,0.00
2014-12-25,64.0,56.7,50.7,55.9,40.0,15.6,99,61,21,29.86,29.71,9,3,0,0.00
2014-12-26,62.6,53.8,48.4,28.8,17.4,11.9,39,24,16,30.15,29.85,8,2,0,0.00
2014-12-27,61.3,51.5,46.9,31.9,21.2,12.8,51,31,16,30.28,30.13,6,2,0,0.00
2014-12-28,59.0,50.8,45.3,39.1,30.7,22.0,69,47,31,30.24,30.11,7,1,0,0.00
2014-12-29,59.0,51.0,45.5,47.2,42.0,33.5,87,72,59,30.11,29.98,8,2,0,0.00
2014-12-30,55.2,49.1,41.0,47.9,42.4,34.5,90,78,56,29.99,29.79,9,2,0,0.05
2014-12-31,54.1,44.9,39.4,35.1,19.7,13.1,83,39,21,30.00,29.81,8,2,0,0.00
2015-1-1,55.9,46.6,40.5,39.0,31.6,19.5,75,56,41,30.11,29.99,8,1,0,0.00
2015-1-2,56.1,48.0,42.3,44.6,40.7,35.5,89,76,56,30.11,30.01,10,2,0,0.00